createdAt,value
2022-11-06T00:01:44.874Z,3.75
2022-11-06T00:04:48.170Z,4.65
2022-11-06T00:07:50.980Z,3.40
2022-11-06T00:10:55.312Z,5.20
2022-11-06T00:13:59.207Z,5.07
2022-11-06T00:17:03.157Z,4.38
2022-11-06T00:20:07.465Z,3.75
2022-11-06T00:23:11.795Z,8.07
2022-11-06T00:26:17.796Z,15.10
2022-11-06T00:29:21.810Z,13.23
2022-11-06T00:32:25.448Z,17.73
2022-11-06T00:35:28.801Z,18.63
2022-11-06T00:38:32.593Z,16.53
2022-11-06T00:41:36.681Z,17.35
2022-11-06T00:44:40.254Z,9.57
2022-11-06T00:47:44.202Z,11.07
2022-11-06T00:50:47.731Z,19.75
2022-11-06T00:53:59.688Z,10.90
2022-11-06T00:57:03.174Z,16.03
2022-11-06T01:00:07.785Z,12.05
2022-11-06T01:03:11.485Z,7.68
2022-11-06T01:06:20.130Z,9.75
2022-11-06T01:09:27.568Z,7.43
2022-11-06T01:12:35.549Z,9.30
2022-11-06T01:15:39.564Z,13.18
2022-11-06T01:18:44.943Z,9.75
2022-11-06T01:21:50.903Z,10.82
2022-11-06T01:24:54.120Z,8.63
2022-11-06T01:27:58.115Z,14.47
2022-11-06T01:31:16.108Z,11.05
2022-11-06T01:34:19.406Z,6.15
2022-11-06T01:37:22.697Z,7.13
2022-11-06T01:40:26.672Z,5.40
2022-11-06T01:43:57.532Z,48.40
2022-11-06T01:47:08.179Z,13.75
2022-11-06T01:50:13.478Z,9.82
2022-11-06T01:53:16.719Z,7.35
2022-11-06T01:56:20.576Z,6.90
2022-11-06T01:59:27.424Z,12.70
2022-11-06T02:02:31.154Z,7.82
2022-11-06T02:05:35.199Z,9.23
2022-11-06T02:08:38.033Z,5.63
2022-11-06T02:11:51.981Z,6.30
2022-11-06T02:15:13.993Z,6.73
2022-11-06T02:18:23.459Z,10.30
2022-11-06T02:21:55.259Z,9.30
2022-11-06T02:25:13.280Z,7.70
2022-11-06T02:28:24.645Z,5.87
2022-11-06T02:31:32.828Z,7.30
2022-11-06T02:34:37.696Z,8.48
2022-11-06T02:37:45.590Z,7.97
2022-11-06T02:41:01.476Z,7.28
2022-11-06T02:44:08.879Z,7.53
2022-11-06T02:47:15.566Z,8.07
2022-11-06T02:50:24.893Z,5.82
2022-11-06T02:53:31.361Z,6.72
2022-11-06T02:56:40.398Z,10.85
2022-11-06T02:59:52.973Z,6.37
2022-11-06T03:02:59.569Z,3.97
2022-11-06T03:06:15.672Z,3.50
2022-11-06T03:09:28.197Z,3.55
2022-11-06T03:12:58.053Z,2.53
2022-11-06T03:16:13.971Z,2.33
2022-11-06T03:19:30.121Z,2.50
2022-11-06T03:22:59.314Z,4.68
2022-11-06T03:26:24.180Z,5.57
2022-11-06T03:29:40.587Z,5.05
2022-11-06T03:32:51.816Z,4.80
2022-11-06T03:36:11.607Z,3.33
2022-11-06T03:39:31.036Z,4.28
2022-11-06T03:42:34.830Z,4.82
2022-11-06T03:45:41.805Z,6.78
2022-11-06T03:49:01.298Z,4.77
2022-11-06T03:52:20.917Z,2.57
2022-11-06T03:55:30.772Z,4.68
2022-11-06T03:58:41.938Z,3.40
2022-11-06T04:01:47.948Z,2.85
2022-11-06T04:04:57.792Z,3.20
2022-11-06T04:08:40.305Z,3.13
2022-11-06T04:12:04.636Z,2.90
2022-11-06T04:15:13.101Z,2.35
2022-11-06T04:18:21.248Z,1.30
2022-11-06T04:21:27.629Z,1.40
2022-11-06T04:25:05.506Z,1.53
2022-11-06T04:28:37.479Z,1.20
2022-11-06T04:32:10.902Z,2.17
2022-11-06T04:35:26.353Z,3.88
2022-11-06T04:38:41.951Z,1.23
2022-11-06T04:42:24.212Z,2.20
2022-11-06T04:45:35.409Z,3.42
2022-11-06T04:48:40.958Z,2.38
2022-11-06T04:51:46.896Z,2.08
2022-11-06T04:54:51.045Z,2.57
2022-11-06T04:57:54.404Z,3.13
2022-11-06T05:00:58.154Z,3.03
2022-11-06T05:04:02.215Z,3.75
2022-11-06T05:07:05.903Z,3.75
2022-11-06T05:10:10.761Z,2.83
2022-11-06T05:13:15.653Z,2.13
2022-11-06T05:16:19.746Z,2.30
2022-11-06T05:19:23.334Z,2.67
2022-11-06T05:22:45.266Z,4.88
2022-11-06T05:25:48.711Z,4.93
2022-11-06T05:28:52.543Z,3.80
2022-11-06T05:32:04.894Z,3.15
2022-11-06T05:35:08.375Z,5.93
2022-11-06T05:38:12.569Z,7.07
2022-11-06T05:41:16.245Z,6.70
2022-11-06T05:44:20.195Z,5.80
2022-11-06T05:47:23.841Z,3.97
2022-11-06T05:50:28.257Z,3.30
2022-11-06T05:53:36.447Z,3.38
2022-11-06T05:56:40.913Z,5.27
2022-11-06T05:59:44.563Z,3.30
2022-11-06T06:02:48.712Z,3.67
2022-11-06T06:05:52.759Z,3.80
2022-11-06T06:08:56.332Z,3.22
2022-11-06T06:11:59.944Z,4.17
2022-11-06T06:15:03.030Z,4.63
2022-11-06T06:18:07.300Z,3.45
2022-11-06T06:21:10.595Z,5.93
2022-11-06T06:24:14.186Z,4.13
2022-11-06T06:27:17.797Z,2.80
2022-11-06T06:30:22.767Z,3.73
2022-11-06T06:33:25.615Z,2.63
2022-11-06T06:36:29.279Z,2.50
2022-11-06T06:39:32.395Z,3.53
2022-11-06T06:42:36.484Z,1.90
2022-11-06T06:45:39.637Z,2.10
2022-11-06T06:48:42.822Z,2.45
2022-11-06T06:51:46.017Z,3.20
2022-11-06T06:54:49.177Z,2.95
2022-11-06T06:58:00.361Z,4.03
2022-11-06T07:01:05.346Z,2.80
2022-11-06T07:04:11.657Z,2.33
2022-11-06T07:07:14.628Z,2.75
2022-11-06T07:10:18.863Z,2.95
2022-11-06T07:13:21.687Z,4.40
2022-11-06T07:16:26.215Z,2.90
2022-11-06T07:19:29.830Z,3.10
2022-11-06T07:22:37.312Z,3.50
2022-11-06T07:25:41.367Z,3.58
2022-11-06T07:28:44.226Z,3.20
2022-11-06T07:31:48.129Z,8.13
2022-11-06T07:34:51.152Z,5.70
2022-11-06T07:37:55.070Z,4.55
2022-11-06T07:41:02.786Z,3.35
2022-11-06T07:44:07.128Z,3.50
2022-11-06T07:47:10.729Z,6.20
2022-11-06T07:50:14.314Z,7.07
2022-11-06T07:53:18.085Z,6.00
2022-11-06T07:56:21.984Z,5.78
2022-11-06T07:59:25.965Z,9.20
2022-11-06T08:02:30.021Z,9.17
2022-11-06T08:05:33.607Z,9.85
2022-11-06T08:08:36.663Z,6.30
2022-11-06T08:11:39.491Z,6.90
2022-11-06T08:14:43.425Z,9.00
2022-11-06T08:17:46.242Z,4.87
2022-11-06T08:20:49.741Z,4.38
2022-11-06T08:23:52.645Z,5.50
2022-11-06T08:26:56.308Z,6.32
2022-11-06T08:30:00.019Z,12.43
2022-11-06T08:33:06.251Z,17.63
2022-11-06T08:36:10.892Z,17.73
2022-11-06T08:39:14.815Z,13.43
2022-11-06T08:42:17.725Z,11.30
2022-11-06T08:45:21.041Z,12.33
2022-11-06T08:48:24.626Z,10.37
2022-11-06T08:51:27.821Z,8.93
2022-11-06T08:54:31.233Z,8.73
2022-11-06T08:57:34.582Z,9.73
2022-11-06T09:00:37.946Z,9.77
2022-11-06T09:03:41.914Z,10.73
2022-11-06T09:06:45.209Z,10.43
2022-11-06T09:09:49.280Z,11.70
2022-11-06T09:12:52.473Z,10.90
2022-11-06T09:15:55.424Z,14.20
2022-11-06T09:19:00.689Z,47.28
2022-11-06T09:22:04.836Z,47.05
2022-11-06T09:25:10.078Z,30.17
2022-11-06T09:28:13.958Z,27.73
2022-11-06T09:31:17.592Z,25.67
2022-11-06T09:34:21.667Z,24.20
2022-11-06T09:37:25.271Z,27.30
2022-11-06T09:40:44.685Z,32.65
2022-11-06T09:44:25.762Z,32.80
2022-11-06T09:47:33.517Z,33.17
2022-11-06T09:50:49.484Z,31.13
2022-11-06T09:54:05.279Z,28.58
2022-11-06T09:57:56.638Z,30.08
2022-11-06T10:01:07.732Z,35.90
2022-11-06T10:04:37.331Z,30.33
2022-11-06T10:07:45.244Z,29.75
2022-11-06T10:11:23.487Z,24.33
2022-11-06T10:14:38.778Z,41.03
2022-11-06T10:18:16.906Z,8.98
2022-11-06T10:21:20.955Z,7.93
2022-11-06T10:24:31.757Z,8.80
2022-11-06T10:27:44.060Z,9.23
2022-11-06T10:31:16.554Z,7.72
2022-11-06T10:34:35.513Z,6.63
2022-11-06T10:38:02.518Z,17.53
2022-11-06T10:41:05.856Z,10.65
2022-11-06T10:44:24.962Z,15.70
2022-11-06T10:47:35.212Z,20.80
2022-11-06T10:50:53.810Z,17.80
2022-11-06T10:54:20.222Z,19.10
2022-11-06T10:57:46.890Z,16.45
2022-11-06T11:00:53.749Z,17.20
2022-11-06T11:03:58.002Z,18.80
2022-11-06T11:07:21.379Z,18.42
2022-11-06T11:10:27.249Z,17.77
2022-11-06T11:13:31.003Z,29.25
2022-11-06T11:16:39.007Z,23.80
2022-11-06T11:19:44.536Z,18.42
2022-11-06T11:22:47.966Z,19.23
2022-11-06T11:25:57.101Z,17.50
2022-11-06T11:29:12.409Z,16.27
2022-11-06T11:32:18.115Z,15.27
2022-11-06T11:35:29.073Z,14.98
2022-11-06T11:42:25.324Z,16.93
2022-11-06T11:45:28.936Z,17.98
2022-11-06T11:49:02.890Z,19.60
2022-11-06T11:52:13.132Z,27.77
2022-11-06T11:55:23.345Z,19.27
2022-11-06T11:58:29.836Z,23.40
2022-11-06T12:01:35.987Z,19.48
2022-11-06T12:04:44.569Z,24.08
2022-11-06T12:07:57.228Z,21.77
2022-11-06T12:11:05.444Z,21.02
2022-11-06T12:14:45.770Z,27.40
2022-11-06T12:18:12.728Z,26.25
2022-11-06T12:21:25.210Z,22.80
2022-11-06T12:24:44.244Z,17.77
2022-11-06T12:28:11.612Z,15.50
2022-11-06T12:31:30.024Z,44.53
2022-11-06T12:34:40.339Z,17.92
2022-11-06T12:38:20.300Z,21.90
2022-11-06T12:41:42.643Z,17.88
2022-11-06T12:44:48.348Z,26.33
2022-11-06T12:48:05.379Z,26.53
2022-11-06T12:51:28.124Z,24.77
2022-11-06T12:55:04.163Z,23.98
2022-11-06T12:58:41.352Z,24.70
2022-11-06T13:02:29.475Z,32.00
2022-11-06T13:05:47.190Z,26.58
2022-11-06T13:09:06.130Z,29.20
2022-11-06T13:12:19.929Z,25.20
2022-11-06T13:15:32.198Z,24.40
2022-11-06T13:18:53.661Z,23.02
2022-11-06T13:22:18.218Z,26.83
2022-11-06T13:25:58.241Z,24.30
2022-11-06T13:29:05.431Z,24.98
2022-11-06T13:32:19.691Z,26.42
2022-11-06T13:35:24.203Z,26.02
2022-11-06T13:38:35.469Z,21.90
2022-11-06T13:41:38.321Z,15.07
2022-11-06T13:44:41.488Z,15.85
2022-11-06T13:48:15.743Z,18.75
2022-11-06T13:51:26.970Z,15.90
2022-11-06T13:54:48.724Z,18.35
2022-11-06T13:58:13.694Z,20.17
2022-11-06T14:01:51.206Z,21.10
2022-11-06T14:05:32.867Z,22.13
2022-11-06T14:08:54.590Z,20.08
2022-11-06T14:12:04.297Z,19.27
2022-11-06T14:15:18.119Z,23.15
2022-11-06T14:18:24.371Z,21.73
2022-11-06T14:21:36.848Z,17.60
2022-11-06T14:24:43.191Z,17.30
2022-11-06T14:27:49.588Z,12.90
2022-11-06T14:34:36.158Z,15.30
2022-11-06T14:37:46.131Z,12.45
2022-11-06T14:40:49.183Z,15.70
2022-11-06T14:44:01.028Z,14.88
2022-11-06T14:47:07.779Z,14.70
2022-11-06T14:50:27.899Z,23.27
2022-11-06T14:53:39.043Z,20.60
2022-11-06T14:56:43.289Z,17.80
2022-11-06T14:59:49.009Z,47.38
2022-11-06T15:02:52.313Z,16.27
2022-11-06T15:06:19.916Z,14.93
2022-11-06T15:09:27.276Z,14.48
2022-11-06T15:13:11.563Z,13.23
2022-11-06T15:16:14.986Z,16.63
2022-11-06T15:19:35.265Z,15.13
2022-11-06T15:22:45.202Z,15.65
2022-11-06T15:26:00.911Z,16.20
2022-11-06T15:29:10.610Z,14.25
2022-11-06T15:32:24.914Z,12.45
2022-11-06T15:35:34.132Z,14.60
2022-11-06T15:38:42.221Z,24.60
2022-11-06T15:41:45.646Z,19.92
2022-11-06T15:44:50.070Z,20.75
2022-11-06T15:48:06.271Z,21.17
2022-11-06T15:51:27.011Z,17.60
2022-11-06T15:54:36.643Z,14.38
2022-11-06T15:57:40.269Z,12.03
2022-11-06T16:00:44.190Z,12.88
2022-11-06T16:03:53.855Z,12.70
2022-11-06T16:06:58.343Z,13.23
2022-11-06T16:10:02.292Z,9.13
2022-11-06T16:13:06.775Z,8.63
2022-11-06T16:16:32.502Z,9.32
2022-11-06T16:19:39.777Z,11.07
2022-11-06T16:22:42.925Z,10.10
2022-11-06T16:25:46.921Z,11.32
2022-11-06T16:28:51.723Z,11.32
2022-11-06T16:32:26.177Z,10.10
2022-11-06T16:35:37.402Z,12.17
2022-11-06T16:38:44.920Z,12.13
2022-11-06T16:42:01.173Z,13.88
2022-11-06T16:45:21.191Z,15.00
2022-11-06T16:48:27.252Z,15.03
2022-11-06T16:51:34.777Z,14.00
2022-11-06T16:54:38.603Z,13.10
2022-11-06T16:57:59.186Z,13.75
2022-11-06T17:01:07.302Z,13.90
2022-11-06T17:04:22.335Z,13.70
2022-11-06T17:07:26.023Z,13.73
2022-11-06T17:10:35.620Z,13.55
2022-11-06T17:13:41.111Z,13.17
2022-11-06T17:16:57.169Z,11.57
2022-11-06T17:20:00.074Z,11.07
2022-11-06T17:23:03.538Z,10.23
2022-11-06T17:26:13.045Z,10.63
2022-11-06T17:29:21.847Z,9.68
2022-11-06T17:32:25.845Z,8.60
2022-11-06T17:35:29.635Z,9.23
2022-11-06T17:38:33.294Z,9.60
2022-11-06T17:41:37.253Z,10.02
2022-11-06T17:44:40.091Z,9.73
2022-11-06T17:47:44.279Z,10.30
2022-11-06T17:51:06.127Z,10.43
2022-11-06T17:54:11.106Z,8.20
2022-11-06T17:57:19.746Z,8.82
2022-11-06T18:00:26.725Z,8.95
2022-11-06T18:03:36.192Z,8.83
2022-11-06T18:06:39.909Z,9.63
2022-11-06T18:09:42.863Z,8.70
2022-11-06T18:12:46.387Z,11.60
2022-11-06T18:15:49.960Z,10.00
2022-11-06T18:18:54.437Z,8.38
2022-11-06T18:22:02.406Z,7.90
2022-11-06T18:25:10.059Z,7.60
2022-11-06T18:28:12.947Z,7.35
2022-11-06T18:31:16.899Z,7.60
2022-11-06T18:34:21.523Z,5.88
2022-11-06T18:37:26.756Z,6.67
2022-11-06T18:40:30.009Z,6.15
2022-11-06T18:43:34.016Z,5.93
2022-11-06T18:46:37.624Z,6.40
2022-11-06T18:49:41.503Z,5.10
2022-11-06T18:52:57.346Z,5.40
2022-11-06T18:56:01.137Z,4.72
2022-11-06T18:59:09.393Z,4.95
2022-11-06T19:02:13.540Z,5.10
2022-11-06T19:05:17.492Z,5.05
2022-11-06T19:08:21.382Z,5.20
2022-11-06T19:11:24.301Z,4.17
2022-11-06T19:14:28.169Z,4.72
2022-11-06T19:17:32.034Z,3.97
2022-11-06T19:20:35.558Z,4.73
2022-11-06T19:23:42.653Z,4.47
2022-11-06T19:26:48.194Z,5.00
2022-11-06T19:29:51.876Z,4.60
2022-11-06T19:32:55.502Z,4.47
2022-11-06T19:36:01.821Z,5.93
2022-11-06T19:39:05.467Z,5.72
2022-11-06T19:42:08.280Z,4.43
2022-11-06T19:45:11.868Z,4.38
2022-11-06T19:48:15.307Z,4.85
2022-11-06T19:51:19.479Z,3.83
2022-11-06T19:54:23.228Z,3.85
2022-11-06T19:57:30.265Z,4.95
2022-11-06T20:00:34.158Z,5.45
2022-11-06T20:03:38.370Z,5.65
2022-11-06T20:06:41.755Z,5.32
2022-11-06T20:09:45.237Z,4.90
2022-11-06T20:12:48.927Z,5.03
2022-11-06T20:15:52.509Z,6.47
2022-11-06T20:19:00.359Z,7.72
2022-11-06T20:22:04.006Z,6.47
2022-11-06T20:25:08.509Z,7.20
2022-11-06T20:28:12.117Z,7.22
2022-11-06T20:31:19.433Z,12.65
2022-11-06T20:34:22.411Z,18.38
2022-11-06T20:37:26.760Z,15.07
2022-11-06T20:40:33.607Z,16.67
2022-11-06T20:43:37.611Z,13.10
2022-11-06T20:46:41.340Z,13.95
2022-11-06T20:49:44.958Z,11.88
2022-11-06T20:52:48.962Z,12.75
2022-11-06T20:56:05.222Z,12.13
2022-11-06T20:59:08.519Z,11.23
2022-11-06T21:02:12.607Z,10.60
2022-11-06T21:05:16.653Z,9.70
2022-11-06T21:08:20.653Z,10.05
2022-11-06T21:11:26.559Z,9.68
2022-11-06T21:14:30.853Z,10.75
2022-11-06T21:17:35.644Z,10.17
2022-11-06T21:20:39.717Z,11.75
2022-11-06T21:23:43.998Z,10.10
2022-11-06T21:26:48.153Z,13.30
2022-11-06T21:29:51.798Z,14.93
2022-11-06T21:32:55.840Z,21.90
2022-11-06T21:36:13.737Z,18.42
2022-11-06T21:39:20.286Z,12.65
2022-11-06T21:42:23.155Z,12.40
2022-11-06T21:45:27.738Z,11.77
2022-11-06T21:48:45.931Z,10.68
2022-11-06T21:51:51.080Z,11.57
2022-11-06T21:55:12.316Z,9.70
2022-11-06T21:58:15.644Z,8.32
2022-11-06T22:01:19.723Z,9.45
2022-11-06T22:04:24.152Z,9.77
2022-11-06T22:07:27.829Z,25.47
2022-11-06T22:10:31.542Z,10.60
2022-11-06T22:13:35.341Z,8.88
2022-11-06T22:16:40.841Z,9.68
2022-11-06T22:19:43.826Z,22.03
2022-11-06T22:22:47.503Z,38.15
2022-11-06T22:25:50.404Z,33.15
2022-11-06T22:28:56.059Z,28.17
2022-11-06T22:31:59.665Z,29.70
2022-11-06T22:35:03.017Z,29.50
2022-11-06T22:38:06.000Z,25.20
2022-11-06T22:41:14.221Z,30.88
2022-11-06T22:44:17.989Z,37.90
2022-11-06T22:47:21.937Z,35.83
2022-11-06T22:50:25.780Z,40.10
2022-11-06T22:53:29.995Z,26.52
2022-11-06T22:56:33.720Z,18.70
2022-11-06T22:59:36.955Z,21.00
2022-11-06T23:02:39.986Z,29.25
2022-11-06T23:05:43.349Z,35.13
2022-11-06T23:08:47.280Z,33.20
2022-11-06T23:11:51.327Z,30.85
2022-11-06T23:14:54.965Z,26.73
2022-11-06T23:17:59.746Z,22.55
2022-11-06T23:21:03.540Z,22.27
2022-11-06T23:24:08.428Z,21.40
2022-11-06T23:27:12.947Z,24.10
2022-11-06T23:30:16.917Z,42.05
2022-11-06T23:33:21.229Z,27.97
2022-11-06T23:36:24.967Z,29.60
2022-11-06T23:39:27.852Z,29.17
2022-11-06T23:42:31.285Z,21.45
2022-11-06T23:45:50.534Z,32.50
2022-11-06T23:48:53.843Z,30.17
2022-11-06T23:51:56.823Z,27.55
2022-11-06T23:54:59.904Z,26.03
2022-11-06T23:58:02.783Z,23.00
